Harlan, IN (46743)

10:17 AM EDT on August 23, 2014 (GMT -0400)
Tom Kneubuhler, Woodburn, In | Change Station
CLOSE
Current Station
Personal Weather Station
Location: Woodburn, IN
Elevation: 751 ft
Nearby Weather Stations

Elev 751 ft 41.18 °N, 84.84 °W | Updated 36 seconds ago

Haze
Haze
75.1 °F
Feels Like 75 °F
N
0.0
Wind Variable Wind from ESE
Gusts 1.0 mph

Today
High -- | Low -- °F
--% Chance of Precip.
Yesterday
High -- | Low -- °F
Precip. -- in
6:56 AM 8:26 PM
Waning Crescent, 4% visible
Pressure 30.04 in
Visibility 4.0 miles
Clouds Mostly Cloudy 600 ft
Heat Index 75 °F
Dew Point 71 °F
Humidity 87%
Rainfall 0.00 in
Snow Depth Not available.
UV 2 out of 12
Pollen 9.30 out of 12
Ozone Good
PM2.5 Moderate
Flu Activity Not available.
METAR KGWB 231355Z AUTO 11004KT 4SM HZ BKN006 23/20 A3004 RMK AO2

More Conditions Fewer Conditions

Pressure 30.04 in
Visibility 4.0 miles
Clouds Mostly Cloudy 600 ft
Heat Index 75 °F
Dew Point 71 °F
Humidity 87%
Rainfall 0.00 in
Snow Depth Not available.
UV 2 out of 12
Pollen 9.30 out of 12
Ozone Good
PM2.5 Moderate
Flu Activity Not available.
METAR KGWB 231355Z AUTO 11004KT 4SM HZ BKN006 23/20 A3004 RMK AO2

More Conditions Fewer Conditions

10-Day Weather Forecast

Almanac

Astronomy

Aug. 23, 2014 Rise Set
Actual Time 6:56 AM EDT 8:26 PM EDT
Civil Twilight 6:27 AM EDT 8:55 PM EDT
Nautical Twilight 5:52 AM EDT 9:30 PM EDT
Astronomical Twilight 5:15 AM EDT 10:06 PM EDT
Moon 5:11 AM EDT 7:10 PM EDT
Length of Visible Light 14h 27m
Length of Day
13h 29m
Tomorrow will be 2m 32s shorter.
Waning Crescent, 4% of the Moon is Illuminated
Today
Waning Crescent
Aug 25
New
Sep 2
First Quarter
Sep 8
Full
Sep 15
Last Quarter

Today's Extremes

State Highs State Lows

Community

WunderPhotos

Upload Photos

1,746,463 photos uploaded!

WunderBlogs® & News

By Dr. Jeff Masters
Director of Meteorology, Weather Underground
By Kari Strenfel
Meteorologist, Weather Underground
By Christopher C. Burt
Weather Historian, Weather Underground
August 23, 2014
August 23, 2014
August 23, 2014

Nearby

Air Quality

  Air Quality AQ Index Pollutant
Yesterday Good
OZONE
Yesterday Good
PM2.5
Current Moderate
PM2.5
Current Good
OZONE
Saturday Moderate
PM2.5
Saturday Good
OZONE
Sunday Moderate
PM2.5
Sunday Good
OZONE
Monday Moderate
OZONE
Monday Moderate
PM2.5

Snow Depth

Station Depth Elevation
No new snow has been reported.

Earthquake Activity

City Distance Mag. Time & Date
No recent earthquake activity has been reported nearby.
Minimum magnitude displayed is 2.5.

Coastal Water Temperatures

Place Temperature
No Stations Reporting

Nearby Weather Stations